createdAt,value
2023-03-17T00:00:09.023Z,62.89
2023-03-17T00:02:38.415Z,63.04
2023-03-17T00:05:11.641Z,62.91
2023-03-17T00:07:39.493Z,62.78
2023-03-17T00:10:11.226Z,62.69
2023-03-17T00:12:39.099Z,62.77
2023-03-17T00:15:08.030Z,62.64
2023-03-17T00:17:36.050Z,62.99
2023-03-17T00:20:06.649Z,62.76
2023-03-17T00:22:34.505Z,62.78
2023-03-17T00:25:02.397Z,62.67
2023-03-17T00:27:30.281Z,62.51
2023-03-17T00:29:58.413Z,62.84
2023-03-17T00:32:26.477Z,62.77
2023-03-17T00:34:54.349Z,62.51
2023-03-17T00:37:23.702Z,62.50
2023-03-17T00:39:51.589Z,62.38
2023-03-17T00:42:19.490Z,62.67
2023-03-17T00:44:47.527Z,62.31
2023-03-17T00:47:15.471Z,62.68
2023-03-17T00:49:43.316Z,62.36
2023-03-17T00:52:11.288Z,62.22
2023-03-17T00:54:40.554Z,62.63
2023-03-17T00:57:10.764Z,62.40
2023-03-17T00:59:40.123Z,62.30
2023-03-17T01:02:08.050Z,62.33
2023-03-17T01:04:36.028Z,62.40
2023-03-17T01:07:04.194Z,62.13
2023-03-17T01:09:33.837Z,62.13
2023-03-17T01:12:03.114Z,62.37
2023-03-17T01:14:31.044Z,62.25
2023-03-17T01:16:59.897Z,62.15
2023-03-17T01:19:28.076Z,61.96
2023-03-17T01:21:56.598Z,62.06
2023-03-17T01:24:26.272Z,62.43
2023-03-17T01:26:54.164Z,62.15
2023-03-17T01:29:23.449Z,62.40
2023-03-17T01:31:51.304Z,62.26
2023-03-17T01:34:19.127Z,62.12
2023-03-17T01:36:47.489Z,62.18
2023-03-17T01:39:15.402Z,62.46
2023-03-17T01:41:43.283Z,62.51
2023-03-17T01:44:15.753Z,62.38
2023-03-17T01:46:45.566Z,62.28
2023-03-17T01:49:17.174Z,62.23
2023-03-17T01:51:50.049Z,62.50
2023-03-17T01:54:19.772Z,62.52
2023-03-17T01:56:48.999Z,62.22
2023-03-17T01:59:19.250Z,62.28
2023-03-17T02:01:49.708Z,62.31
2023-03-17T02:04:17.911Z,62.49
2023-03-17T02:06:57.474Z,62.52
2023-03-17T02:09:26.989Z,62.23
2023-03-17T02:11:55.645Z,62.30
2023-03-17T02:14:23.747Z,62.42
2023-03-17T02:16:53.210Z,62.56
2023-03-17T02:19:21.130Z,62.33
2023-03-17T02:21:51.374Z,62.49
2023-03-17T02:24:29.302Z,62.39
2023-03-17T02:26:58.389Z,62.32
2023-03-17T02:29:26.263Z,62.64
2023-03-17T02:31:54.687Z,62.44
2023-03-17T02:34:22.588Z,62.40
2023-03-17T02:36:51.845Z,62.64
2023-03-17T02:39:19.767Z,62.65
2023-03-17T02:41:47.677Z,62.70
2023-03-17T02:44:16.211Z,62.33
2023-03-17T02:46:44.068Z,62.20
2023-03-17T02:49:12.032Z,62.28
2023-03-17T02:51:39.896Z,62.41
2023-03-17T02:54:09.153Z,62.23
2023-03-17T02:56:36.992Z,62.11
2023-03-17T02:59:05.030Z,62.30
2023-03-17T03:01:33.854Z,62.17
2023-03-17T03:04:02.290Z,62.15
2023-03-17T03:06:30.189Z,62.36
2023-03-17T03:08:58.061Z,62.36
2023-03-17T03:11:29.349Z,62.42
2023-03-17T03:13:57.376Z,62.39
2023-03-17T03:16:25.352Z,62.17
2023-03-17T03:18:53.198Z,62.21
2023-03-17T03:21:22.110Z,62.16
2023-03-17T03:23:50.134Z,62.35
2023-03-17T03:26:18.029Z,62.47
2023-03-17T03:28:47.294Z,62.14
2023-03-17T03:31:15.228Z,62.24
2023-03-17T03:33:43.159Z,62.14
2023-03-17T03:36:11.393Z,62.32
2023-03-17T03:38:39.314Z,62.47
2023-03-17T03:41:07.423Z,62.56
2023-03-17T03:43:35.423Z,62.60
2023-03-17T03:46:04.780Z,62.10
2023-03-17T03:48:32.911Z,62.24
2023-03-17T03:51:01.486Z,62.26
2023-03-17T03:53:29.467Z,62.55
2023-03-17T03:55:57.377Z,62.21
2023-03-17T03:58:25.369Z,62.16
2023-03-17T04:00:53.189Z,62.56
2023-03-17T04:03:22.438Z,62.45
2023-03-17T04:05:50.358Z,62.52
2023-03-17T04:08:18.227Z,62.23
2023-03-17T04:10:46.084Z,62.15
2023-03-17T04:13:14.106Z,62.18
2023-03-17T04:15:42.527Z,62.53
2023-03-17T04:18:10.595Z,62.53
2023-03-17T04:20:39.854Z,62.17
2023-03-17T04:23:07.918Z,62.49
2023-03-17T04:25:35.856Z,62.12
2023-03-17T04:28:03.753Z,62.36
2023-03-17T04:30:32.542Z,62.11
2023-03-17T04:33:01.125Z,62.48
2023-03-17T04:35:29.054Z,62.53
2023-03-17T04:37:58.316Z,62.51
2023-03-17T04:40:26.604Z,62.44
2023-03-17T04:42:54.501Z,62.28
2023-03-17T04:45:22.382Z,62.53
2023-03-17T04:47:50.235Z,62.52
2023-03-17T04:50:18.599Z,62.50
2023-03-17T04:52:46.460Z,62.59
2023-03-17T04:55:16.246Z,62.80
2023-03-17T04:57:44.828Z,62.83
2023-03-17T05:00:15.466Z,62.56
2023-03-17T05:02:44.203Z,62.61
2023-03-17T05:05:12.315Z,62.61
2023-03-17T05:07:40.180Z,62.82
2023-03-17T05:10:09.436Z,62.69
2023-03-17T05:12:38.702Z,62.76
2023-03-17T05:15:07.530Z,62.82
2023-03-17T05:17:35.575Z,62.87
2023-03-17T05:20:04.334Z,62.94
2023-03-17T05:22:32.206Z,63.00
2023-03-17T05:25:00.074Z,62.87
2023-03-17T05:27:27.971Z,62.90
2023-03-17T05:29:57.327Z,62.96
2023-03-17T05:32:25.792Z,62.89
2023-03-17T05:34:53.814Z,62.88
2023-03-17T05:37:21.679Z,63.20
2023-03-17T05:39:49.563Z,62.88
2023-03-17T05:42:17.473Z,62.80
2023-03-17T05:44:45.337Z,62.74
2023-03-17T05:47:14.712Z,62.70
2023-03-17T05:49:42.571Z,62.81
2023-03-17T05:52:10.516Z,62.88
2023-03-17T05:54:38.552Z,63.17
2023-03-17T05:57:06.505Z,63.12
2023-03-17T05:59:34.976Z,62.85
2023-03-17T06:02:03.044Z,63.16
2023-03-17T06:04:32.968Z,62.93
2023-03-17T06:07:01.000Z,62.86
2023-03-17T06:09:29.295Z,62.67
2023-03-17T06:11:57.716Z,62.79
2023-03-17T06:14:27.119Z,63.02
2023-03-17T06:16:55.168Z,62.89
2023-03-17T06:19:23.070Z,62.96
2023-03-17T06:21:52.344Z,63.00
2023-03-17T06:24:20.212Z,62.85
2023-03-17T06:26:48.111Z,62.79
2023-03-17T06:29:16.687Z,62.93
2023-03-17T06:31:50.373Z,62.74
2023-03-17T06:34:18.444Z,62.64
2023-03-17T06:36:46.447Z,62.73
2023-03-17T06:39:16.025Z,62.59
2023-03-17T06:41:43.880Z,62.94
2023-03-17T06:44:11.777Z,63.12
2023-03-17T06:46:39.798Z,63.20
2023-03-17T06:49:08.254Z,63.15
2023-03-17T06:51:37.357Z,63.30
2023-03-17T06:54:05.280Z,63.08
2023-03-17T06:56:34.497Z,63.43
2023-03-17T06:59:03.057Z,63.05
2023-03-17T07:01:30.979Z,63.33
2023-03-17T07:03:58.876Z,63.24
2023-03-17T07:06:26.852Z,63.19
2023-03-17T07:08:54.761Z,63.47
2023-03-17T07:11:23.679Z,63.27
2023-03-17T07:13:53.040Z,63.29
2023-03-17T07:16:21.460Z,63.10
2023-03-17T07:18:49.683Z,63.24
2023-03-17T07:21:17.677Z,63.46
2023-03-17T07:23:45.570Z,63.54
2023-03-17T07:26:13.449Z,63.16
2023-03-17T07:28:41.981Z,63.19
2023-03-17T07:31:14.333Z,63.04
2023-03-17T07:33:42.301Z,63.29
2023-03-17T07:36:10.534Z,63.00
2023-03-17T07:38:38.525Z,63.24
2023-03-17T07:41:09.927Z,62.92
2023-03-17T07:43:38.718Z,63.26
2023-03-17T07:46:07.496Z,63.25
2023-03-17T07:48:40.916Z,63.01
2023-03-17T07:51:11.464Z,63.09
2023-03-17T07:53:39.321Z,63.07
2023-03-17T07:56:07.854Z,62.88
2023-03-17T07:58:35.884Z,62.92
2023-03-17T08:01:03.900Z,62.89
2023-03-17T08:03:31.888Z,62.68
2023-03-17T08:06:01.147Z,62.40
2023-03-17T08:08:29.282Z,62.66
2023-03-17T08:10:59.754Z,62.60
2023-03-17T08:13:27.665Z,62.39
2023-03-17T08:15:56.020Z,62.75
2023-03-17T08:18:24.034Z,62.42
2023-03-17T08:20:52.421Z,62.76
2023-03-17T08:23:21.670Z,62.59
2023-03-17T08:25:49.620Z,62.61
2023-03-17T08:28:17.631Z,62.32
2023-03-17T08:30:50.356Z,62.18
2023-03-17T08:33:18.712Z,62.50
2023-03-17T08:35:47.046Z,62.56
2023-03-17T08:38:14.995Z,62.12
2023-03-17T08:40:44.832Z,62.43
2023-03-17T08:43:14.844Z,62.01
2023-03-17T08:45:44.511Z,62.23
2023-03-17T08:48:12.554Z,62.14
2023-03-17T08:50:40.686Z,62.16
2023-03-17T08:53:08.548Z,61.88
2023-03-17T08:55:36.597Z,62.01
2023-03-17T08:58:05.974Z,61.90
2023-03-17T09:00:34.048Z,61.65
2023-03-17T09:03:02.096Z,61.36
2023-03-17T09:05:30.483Z,61.28
2023-03-17T09:07:58.632Z,61.14
2023-03-17T09:10:26.712Z,60.88
2023-03-17T09:13:02.905Z,61.03
2023-03-17T09:15:32.737Z,61.13
2023-03-17T09:18:01.007Z,60.58
2023-03-17T09:20:29.381Z,61.18
2023-03-17T09:22:59.412Z,61.17
2023-03-17T09:25:27.486Z,60.82
2023-03-17T09:27:55.747Z,60.93
2023-03-17T09:30:23.617Z,60.25
2023-03-17T09:32:55.892Z,59.82
2023-03-17T09:35:24.033Z,59.17
2023-03-17T09:37:52.129Z,58.00
2023-03-17T09:40:21.282Z,58.06
2023-03-17T09:42:54.898Z,57.30
2023-03-17T09:45:31.754Z,56.62
2023-03-17T09:48:22.613Z,56.44
2023-03-17T09:50:52.213Z,56.11
2023-03-17T09:53:21.493Z,56.58
2023-03-17T09:55:50.873Z,56.77
2023-03-17T09:58:19.927Z,56.22
2023-03-17T10:00:47.824Z,55.81
2023-03-17T10:03:17.302Z,56.02
2023-03-17T10:05:45.853Z,55.59
2023-03-17T10:08:30.038Z,55.55
2023-03-17T10:11:01.430Z,55.07
2023-03-17T10:13:33.414Z,54.08
2023-03-17T10:16:03.527Z,53.41
2023-03-17T10:18:35.154Z,53.06
2023-03-17T10:21:06.103Z,53.55
2023-03-17T10:23:35.806Z,53.71
2023-03-17T10:26:07.617Z,53.91
2023-03-17T10:28:38.820Z,54.17
2023-03-17T10:31:15.833Z,53.48
2023-03-17T10:33:45.170Z,53.48
2023-03-17T10:36:15.742Z,52.38
2023-03-17T10:38:51.965Z,52.19
2023-03-17T10:41:19.943Z,51.79
2023-03-17T10:43:50.723Z,50.97
2023-03-17T10:46:22.276Z,50.49
2023-03-17T10:48:56.547Z,50.66
2023-03-17T10:51:30.680Z,50.64
2023-03-17T10:54:01.173Z,50.73
2023-03-17T10:56:31.160Z,50.75
2023-03-17T10:58:59.172Z,51.45
2023-03-17T11:01:35.435Z,51.38
2023-03-17T11:04:06.649Z,51.73
2023-03-17T11:06:38.226Z,51.67
2023-03-17T11:09:09.406Z,51.69
2023-03-17T11:11:46.729Z,51.34
2023-03-17T11:14:15.478Z,51.56
2023-03-17T11:16:49.843Z,51.46
2023-03-17T11:19:20.333Z,51.85
2023-03-17T11:21:51.411Z,51.61
2023-03-17T11:24:20.919Z,51.10
2023-03-17T11:26:57.620Z,51.76
2023-03-17T11:29:31.255Z,52.01
2023-03-17T11:32:01.197Z,51.28
2023-03-17T11:34:41.482Z,50.64
2023-03-17T11:37:17.122Z,49.97
2023-03-17T11:39:48.121Z,50.45
2023-03-17T11:42:17.165Z,50.27
2023-03-17T11:44:59.389Z,51.52
2023-03-17T11:47:40.323Z,53.43
2023-03-17T11:50:17.874Z,53.00
2023-03-17T11:52:52.500Z,52.63
2023-03-17T11:55:22.486Z,50.98
2023-03-17T11:57:54.262Z,50.19
2023-03-17T12:00:26.267Z,49.26
2023-03-17T12:02:56.350Z,47.70
2023-03-17T12:05:26.135Z,47.04
2023-03-17T12:07:55.131Z,45.81
2023-03-17T12:10:24.269Z,46.40
2023-03-17T12:12:53.160Z,45.50
2023-03-17T12:15:26.086Z,44.11
2023-03-17T12:17:56.105Z,44.67
2023-03-17T12:20:33.272Z,45.39
2023-03-17T12:23:04.383Z,46.18
2023-03-17T12:25:33.828Z,47.37
2023-03-17T12:28:03.916Z,47.81
2023-03-17T12:30:34.640Z,48.24
2023-03-17T12:33:08.163Z,48.43
2023-03-17T12:35:38.833Z,48.67
2023-03-17T12:38:09.274Z,49.43
2023-03-17T12:40:39.478Z,49.35
2023-03-17T12:43:21.403Z,48.57
2023-03-17T12:46:07.084Z,47.55
2023-03-17T12:48:50.816Z,48.08
2023-03-17T12:51:41.331Z,48.94
2023-03-17T12:54:14.091Z,51.63
2023-03-17T12:56:45.279Z,50.08
2023-03-17T12:59:17.071Z,48.19
2023-03-17T13:01:46.459Z,46.40
2023-03-17T13:04:19.301Z,45.21
2023-03-17T13:06:51.784Z,45.51
2023-03-17T13:09:57.549Z,45.91
2023-03-17T13:13:05.851Z,46.33
2023-03-17T13:15:55.700Z,47.26
2023-03-17T13:18:28.849Z,47.69
2023-03-17T13:21:13.879Z,47.50
2023-03-17T13:23:47.425Z,47.35
2023-03-17T13:26:16.369Z,47.37
2023-03-17T13:28:47.611Z,47.24
2023-03-17T13:31:30.736Z,47.50
2023-03-17T13:33:58.957Z,46.93
2023-03-17T13:36:30.309Z,47.10
2023-03-17T13:39:32.331Z,47.22
2023-03-17T13:42:17.973Z,47.43
2023-03-17T13:45:11.911Z,47.21
2023-03-17T13:47:42.364Z,46.99
2023-03-17T13:50:14.337Z,46.78
2023-03-17T13:52:43.420Z,46.55
2023-03-17T13:55:34.713Z,47.07
2023-03-17T13:58:27.703Z,46.31
2023-03-17T14:01:02.592Z,46.31
2023-03-17T14:03:33.424Z,46.30
2023-03-17T14:06:04.356Z,46.12
2023-03-17T14:08:34.197Z,46.13
2023-03-17T14:11:03.324Z,45.88
2023-03-17T14:13:33.598Z,46.54
2023-03-17T14:16:03.893Z,46.74
2023-03-17T14:18:33.676Z,47.06
2023-03-17T14:21:02.790Z,47.43
2023-03-17T14:23:31.109Z,48.04
2023-03-17T14:25:59.288Z,49.10
2023-03-17T14:28:28.154Z,50.20
2023-03-17T14:31:00.410Z,50.99
2023-03-17T14:33:28.800Z,51.90
2023-03-17T14:35:58.517Z,52.55
2023-03-17T14:38:27.303Z,52.48
2023-03-17T14:41:04.401Z,53.04
2023-03-17T14:43:32.295Z,53.75
2023-03-17T14:46:02.610Z,53.59
2023-03-17T14:48:32.189Z,54.08
2023-03-17T14:51:05.613Z,53.72
2023-03-17T14:53:34.176Z,53.91
2023-03-17T14:56:02.270Z,53.32
2023-03-17T14:58:31.773Z,53.19
2023-03-17T15:01:06.378Z,52.50
2023-03-17T15:03:34.531Z,52.38
2023-03-17T15:06:07.582Z,52.19
2023-03-17T15:08:46.145Z,51.75
2023-03-17T15:11:23.041Z,51.59
2023-03-17T15:13:54.050Z,51.59
2023-03-17T15:16:24.819Z,51.40
2023-03-17T15:18:57.709Z,51.32
2023-03-17T15:21:29.854Z,51.30
2023-03-17T15:24:00.430Z,51.27
2023-03-17T15:26:32.209Z,51.32
2023-03-17T15:29:02.582Z,51.39
2023-03-17T15:31:32.203Z,51.51
2023-03-17T15:34:00.273Z,51.29
2023-03-17T15:36:33.165Z,50.91
2023-03-17T15:39:01.753Z,51.13
2023-03-17T15:41:29.794Z,50.22
2023-03-17T15:43:57.848Z,50.16
2023-03-17T15:46:27.552Z,50.34
2023-03-17T15:48:56.954Z,50.00
2023-03-17T15:51:25.124Z,50.23
2023-03-17T15:53:53.030Z,50.43
2023-03-17T15:56:21.591Z,50.59
2023-03-17T15:58:51.636Z,50.16
2023-03-17T16:01:19.852Z,49.99
2023-03-17T16:03:48.335Z,49.72
2023-03-17T16:06:18.826Z,49.95
2023-03-17T16:08:46.847Z,50.44
2023-03-17T16:11:17.787Z,50.52
2023-03-17T16:13:46.170Z,50.71
2023-03-17T16:16:21.436Z,51.28
2023-03-17T16:18:50.313Z,51.86
2023-03-17T16:21:20.300Z,52.05
2023-03-17T16:23:48.776Z,52.39
2023-03-17T16:26:17.207Z,52.82
2023-03-17T16:28:45.789Z,52.68
2023-03-17T16:31:21.220Z,52.95
2023-03-17T16:33:49.150Z,53.22
2023-03-17T16:36:19.189Z,53.75
2023-03-17T16:38:47.351Z,53.72
2023-03-17T16:41:19.143Z,53.95
2023-03-17T16:43:51.125Z,54.23
2023-03-17T16:46:19.837Z,54.26
2023-03-17T16:48:48.411Z,54.13
2023-03-17T16:51:16.358Z,54.41
2023-03-17T16:53:47.048Z,54.23
2023-03-17T16:56:17.358Z,54.70
2023-03-17T16:58:46.781Z,54.50
2023-03-17T17:01:16.945Z,54.70
2023-03-17T17:03:45.468Z,54.56
2023-03-17T17:06:14.358Z,55.01
2023-03-17T17:08:43.565Z,54.94
2023-03-17T17:11:13.775Z,55.33
2023-03-17T17:13:41.844Z,55.43
2023-03-17T17:16:13.435Z,55.20
2023-03-17T17:18:41.372Z,55.50
2023-03-17T17:21:11.765Z,55.63
2023-03-17T17:23:39.659Z,55.28
2023-03-17T17:26:07.536Z,55.53
2023-03-17T17:28:39.396Z,55.78
2023-03-17T17:31:09.136Z,55.51
2023-03-17T17:33:37.576Z,55.46
2023-03-17T17:36:05.839Z,55.48
2023-03-17T17:38:33.858Z,55.55
2023-03-17T17:41:05.689Z,55.44
2023-03-17T17:43:33.724Z,55.55
2023-03-17T17:46:03.033Z,55.19
2023-03-17T17:48:30.934Z,55.20
2023-03-17T17:50:59.015Z,55.51
2023-03-17T17:53:27.023Z,55.41
2023-03-17T17:55:55.252Z,55.86
2023-03-17T17:58:25.202Z,55.50
2023-03-17T18:00:55.080Z,55.52
2023-03-17T18:03:25.348Z,55.44
2023-03-17T18:05:53.499Z,55.45
2023-03-17T18:08:24.266Z,55.84
2023-03-17T18:10:52.694Z,55.91
2023-03-17T18:13:21.809Z,55.87
2023-03-17T18:15:49.909Z,55.59
2023-03-17T18:18:18.166Z,55.59
2023-03-17T18:20:47.635Z,55.63
2023-03-17T18:23:17.543Z,55.92
2023-03-17T18:25:45.572Z,56.19
2023-03-17T18:28:15.976Z,56.15
2023-03-17T18:30:44.225Z,56.10
2023-03-17T18:33:15.027Z,56.32
2023-03-17T18:35:43.107Z,56.69
2023-03-17T18:38:12.561Z,56.37
2023-03-17T18:40:40.569Z,56.56
2023-03-17T18:43:08.518Z,56.78
2023-03-17T18:45:36.434Z,57.13
2023-03-17T18:48:04.534Z,57.13
2023-03-17T18:50:32.689Z,56.96
2023-03-17T18:53:00.729Z,57.03
2023-03-17T18:55:30.053Z,57.07
2023-03-17T18:57:58.218Z,57.73
2023-03-17T19:00:27.208Z,57.74
2023-03-17T19:02:55.205Z,57.81
2023-03-17T19:05:23.145Z,57.97
2023-03-17T19:07:51.011Z,58.27
2023-03-17T19:10:19.200Z,58.51
2023-03-17T19:12:48.515Z,58.69
2023-03-17T19:15:17.166Z,58.67
2023-03-17T19:17:45.044Z,58.56
2023-03-17T19:20:14.011Z,59.13
2023-03-17T19:22:42.110Z,59.04
2023-03-17T19:25:10.757Z,59.39
2023-03-17T19:27:38.706Z,59.30
2023-03-17T19:30:10.403Z,59.77
2023-03-17T19:32:38.390Z,59.80
2023-03-17T19:35:07.579Z,59.52
2023-03-17T19:37:36.070Z,59.92
2023-03-17T19:40:04.767Z,59.98
2023-03-17T19:42:35.101Z,59.59
2023-03-17T19:45:04.490Z,59.70
2023-03-17T19:47:34.104Z,59.76
2023-03-17T19:50:02.036Z,60.19
2023-03-17T19:52:29.942Z,60.02
2023-03-17T19:54:57.903Z,60.08
2023-03-17T19:57:25.770Z,60.12
2023-03-17T19:59:53.827Z,59.84
2023-03-17T20:02:21.752Z,59.66
2023-03-17T20:04:51.213Z,59.80
2023-03-17T20:07:19.271Z,59.78
2023-03-17T20:09:48.527Z,59.78
2023-03-17T20:12:16.448Z,60.04
2023-03-17T20:14:44.391Z,59.89
2023-03-17T20:17:13.826Z,60.02
2023-03-17T20:19:41.724Z,60.03
2023-03-17T20:22:11.643Z,60.13
2023-03-17T20:24:39.539Z,60.12
2023-03-17T20:27:08.448Z,60.22
2023-03-17T20:29:36.544Z,60.03
2023-03-17T20:32:04.677Z,60.25
2023-03-17T20:34:34.602Z,60.18
2023-03-17T20:37:02.852Z,60.11
2023-03-17T20:39:32.418Z,60.23
2023-03-17T20:42:01.576Z,60.21
2023-03-17T20:44:29.466Z,60.09
2023-03-17T20:46:57.876Z,60.13
2023-03-17T20:49:25.879Z,60.07
2023-03-17T20:51:53.741Z,60.19
2023-03-17T20:54:23.245Z,60.44
2023-03-17T20:56:55.894Z,60.09
2023-03-17T20:59:32.096Z,60.31
2023-03-17T21:02:00.017Z,60.21
2023-03-17T21:04:27.953Z,60.44
2023-03-17T21:06:55.867Z,60.51
2023-03-17T21:09:23.793Z,60.21
2023-03-17T21:11:53.053Z,60.32
2023-03-17T21:14:20.914Z,60.39
2023-03-17T21:16:48.949Z,60.29
2023-03-17T21:19:17.418Z,60.55
2023-03-17T21:21:45.776Z,60.39
2023-03-17T21:24:22.435Z,60.65
2023-03-17T21:26:50.335Z,61.00
2023-03-17T21:29:19.654Z,60.56
2023-03-17T21:31:47.664Z,60.77
2023-03-17T21:34:15.562Z,60.70
2023-03-17T21:36:43.445Z,60.82
2023-03-17T21:39:11.494Z,60.95
2023-03-17T21:41:40.973Z,60.82
2023-03-17T21:44:09.794Z,60.76
2023-03-17T21:46:39.198Z,60.79
2023-03-17T21:49:07.120Z,60.94
2023-03-17T21:51:35.201Z,60.91
2023-03-17T21:54:03.934Z,61.23
2023-03-17T21:56:32.408Z,60.96
2023-03-17T21:59:00.333Z,60.97
2023-03-17T22:01:28.279Z,61.05
2023-03-17T22:03:57.745Z,61.10
2023-03-17T22:06:27.481Z,60.90
2023-03-17T22:08:55.594Z,60.90
2023-03-17T22:11:23.969Z,60.87
2023-03-17T22:13:52.145Z,61.13
2023-03-17T22:16:20.347Z,61.08
2023-03-17T22:18:48.345Z,61.05
2023-03-17T22:21:17.987Z,61.21
2023-03-17T22:23:46.369Z,61.18
2023-03-17T22:26:15.569Z,61.13
2023-03-17T22:28:46.567Z,61.26
2023-03-17T22:31:14.896Z,61.50
2023-03-17T22:33:42.887Z,61.68
2023-03-17T22:36:10.930Z,61.39
2023-03-17T22:38:40.354Z,61.74
2023-03-17T22:41:09.210Z,61.66
2023-03-17T22:43:37.512Z,62.04
2023-03-17T22:46:05.839Z,61.60
2023-03-17T22:48:35.945Z,61.98
2023-03-17T22:51:03.995Z,61.97
2023-03-17T22:53:32.920Z,61.76
2023-03-17T22:56:02.225Z,61.89
2023-03-17T22:58:30.123Z,61.99
2023-03-17T23:00:58.036Z,62.31
2023-03-17T23:03:26.374Z,62.38
2023-03-17T23:05:57.045Z,62.68
2023-03-17T23:08:29.394Z,62.80
2023-03-17T23:10:58.470Z,62.58
2023-03-17T23:13:27.835Z,62.60
2023-03-17T23:15:56.576Z,62.46
2023-03-17T23:18:24.431Z,62.21
2023-03-17T23:20:52.514Z,62.31
2023-03-17T23:23:20.597Z,62.33
2023-03-17T23:25:48.914Z,62.19
2023-03-17T23:28:16.795Z,62.41
2023-03-17T23:30:47.359Z,62.25
2023-03-17T23:33:15.470Z,62.34
2023-03-17T23:35:43.502Z,62.30
2023-03-17T23:38:11.418Z,62.16
2023-03-17T23:40:39.732Z,62.37
2023-03-17T23:43:07.692Z,62.34
2023-03-17T23:45:35.582Z,62.54
2023-03-17T23:48:05.043Z,62.43
2023-03-17T23:50:33.733Z,62.12
2023-03-17T23:53:01.849Z,62.45
2023-03-17T23:55:29.773Z,62.53
2023-03-17T23:57:57.686Z,62.58
